Terminal Aerodrome Forecast
Issued by NWS

Home | Current Version | Previous Version | Text Only | Print | Product List | Glossary On
Versions: 1 2 3 4 5 6 7 8 9 10 11 12
000
FTUS44 KTSA 271120
TAFBVO
TAF
KBVO 271120Z 2712/2812 21009KT P6SM VCSH BKN100
     FM271600 24006KT P6SM BKN100
     FM272000 31009KT P6SM SCT050 BKN150
      TEMPO 2722/2802 4SM -TSRA BKN050CB
     FM280200 01005KT P6SM OVC040=

USA.gov is the U.S. government's official web portal to all federal, state and local government web resources and services.